Time;durP1;ratioP1;P1;durP2;ratioP2;P2;SDS_P1;SDS_P2;PMS_P1;PMS_P2;Temp;Humidity;BMP_temperature;BMP_pressure;BME280_temperature;BME280_humidity;BME280_pressure;Samples;Min_cycle;Max_cycle;Signal;HPM_P1;HPM_P2
2023/12/12 00:00:09;;;;;;;34.80;18.67;;;;;;;;;;10277214;28;20173;-83
2023/12/12 00:05:10;;;;;;;35.57;19.70;;;;;;;;;;10285437;28;20497;-83
2023/12/12 00:10:11;;;;;;;40.73;20.27;;;;;;;;;;10294800;28;20455;-84
2023/12/12 00:15:12;;;;;;;30.90;17.83;;;;;;;;;;10272857;28;20134;-83
2023/12/12 00:20:20;;;;;;;36.80;20.00;;;;;;;;;;10293135;28;20038;-83
2023/12/12 00:25:21;;;;;;;39.60;19.50;;;;;;;;;;10292667;28;20102;-83
2023/12/12 00:30:24;;;;;;;31.30;17.20;;;;;;;;;;10281525;28;20129;-83
2023/12/12 00:35:26;;;;;;;35.37;18.33;;;;;;;;;;10293207;28;20038;-82
2023/12/12 00:40:27;;;;;;;30.37;16.63;;;;;;;;;;10295442;28;20062;-84
2023/12/12 00:45:28;;;;;;;34.27;16.63;;;;;;;;;;10293292;28;20656;-85
2023/12/12 00:50:29;;;;;;;32.47;15.80;;;;;;;;;;10292187;28;20073;-84
2023/12/12 00:55:30;;;;;;;33.70;17.20;;;;;;;;;;10293491;28;20102;-83
2023/12/12 01:00:31;;;;;;;26.67;15.30;;;;;;;;;;10284969;28;20058;-84
2023/12/12 01:05:32;;;;;;;25.07;14.43;;;;;;;;;;10284215;28;20038;-82
2023/12/12 01:10:33;;;;;;;25.47;14.30;;;;;;;;;;10291888;28;20110;-84
2023/12/12 01:15:34;;;;;;;27.77;13.73;;;;;;;;;;10277613;28;20074;-85
2023/12/12 01:20:35;;;;;;;23.87;12.77;;;;;;;;;;10273880;28;20138;-83
2023/12/12 01:25:36;;;;;;;30.00;14.23;;;;;;;;;;10290319;28;20565;-84
2023/12/12 01:30:37;;;;;;;28.27;13.30;;;;;;;;;;10304644;28;20117;-83
2023/12/12 01:35:41;;;;;;;25.20;12.63;;;;;;;;;;10299384;28;20126;-85
2023/12/12 01:40:43;;;;;;;23.80;13.53;;;;;;;;;;10288335;28;20047;-83
2023/12/12 01:45:44;;;;;;;25.23;13.87;;;;;;;;;;10291325;28;20478;-83
2023/12/12 01:50:46;;;;;;;25.63;12.23;;;;;;;;;;10272934;28;20515;-85
2023/12/12 01:55:50;;;;;;;24.10;13.23;;;;;;;;;;10289640;28;20031;-83
2023/12/12 02:00:52;;;;;;;30.53;14.60;;;;;;;;;;10300468;28;20073;-83
2023/12/12 02:05:59;;;;;;;32.63;15.00;;;;;;;;;;10278554;28;20031;-84
2023/12/12 02:11:00;;;;;;;29.07;13.77;;;;;;;;;;10297988;28;20457;-83
2023/12/12 02:16:01;;;;;;;26.40;12.97;;;;;;;;;;10289205;28;20061;-85
2023/12/12 02:21:02;;;;;;;26.80;13.63;;;;;;;;;;10296130;28;20132;-83
2023/12/12 02:26:03;;;;;;;29.33;14.00;;;;;;;;;;10295331;28;20086;-83
2023/12/12 02:31:04;;;;;;;27.13;14.17;;;;;;;;;;10292830;28;20043;-86
2023/12/12 02:36:06;;;;;;;26.30;14.70;;;;;;;;;;10291056;28;20115;-83
2023/12/12 02:41:08;;;;;;;27.63;14.67;;;;;;;;;;10271091;28;20402;-84
2023/12/12 02:46:15;;;;;;;22.77;13.07;;;;;;;;;;10299003;28;20501;-83
2023/12/12 02:51:16;;;;;;;27.40;14.30;;;;;;;;;;10300506;28;20576;-83
2023/12/12 02:56:17;;;;;;;26.70;13.87;;;;;;;;;;10287953;28;20480;-83
2023/12/12 03:01:18;;;;;;;25.77;14.10;;;;;;;;;;10287854;28;20073;-83
2023/12/12 03:06:19;;;;;;;23.57;13.37;;;;;;;;;;10287482;28;20026;-83
2023/12/12 03:11:20;;;;;;;22.33;12.17;;;;;;;;;;10293495;28;20027;-84
2023/12/12 03:16:22;;;;;;;23.93;12.33;;;;;;;;;;10297439;28;20473;-82
2023/12/12 03:21:23;;;;;;;22.80;12.23;;;;;;;;;;10287618;28;20463;-84
2023/12/12 03:26:24;;;;;;;23.27;11.70;;;;;;;;;;10286974;28;20078;-83
2023/12/12 03:31:25;;;;;;;20.73;10.70;;;;;;;;;;10292636;28;20035;-83
2023/12/12 03:36:26;;;;;;;19.17;10.23;;;;;;;;;;10295549;28;20037;-82
2023/12/12 03:41:30;;;;;;;18.23;9.83;;;;;;;;;;10286516;28;20058;-83
2023/12/12 03:46:32;;;;;;;20.93;10.87;;;;;;;;;;10291036;28;20038;-82
2023/12/12 03:51:33;;;;;;;21.07;10.10;;;;;;;;;;10285034;28;20066;-83
2023/12/12 03:56:34;;;;;;;19.17;11.50;;;;;;;;;;10286373;28;20030;-85
2023/12/12 04:01:35;;;;;;;25.53;11.50;;;;;;;;;;10294821;28;20073;-82
2023/12/12 04:06:43;;;;;;;20.63;10.80;;;;;;;;;;10292377;28;20458;-83
2023/12/12 04:11:44;;;;;;;21.40;11.13;;;;;;;;;;10286282;28;20042;-82
2023/12/12 04:16:46;;;;;;;18.13;10.13;;;;;;;;;;10272309;28;20170;-84
2023/12/12 04:21:47;;;;;;;21.67;10.87;;;;;;;;;;10286249;28;20027;-81
2023/12/12 04:26:48;;;;;;;23.73;11.10;;;;;;;;;;10285507;28;20149;-84
2023/12/12 04:31:49;;;;;;;23.20;10.80;;;;;;;;;;10297172;28;20206;-85
2023/12/12 04:36:51;;;;;;;21.43;11.00;;;;;;;;;;10287838;28;20030;-82
2023/12/12 04:41:52;;;;;;;24.23;11.73;;;;;;;;;;10294253;28;20030;-81
2023/12/12 04:46:53;;;;;;;23.87;11.77;;;;;;;;;;10292379;28;20041;-83
2023/12/12 04:51:54;;;;;;;19.00;11.17;;;;;;;;;;10285004;28;20073;-82
2023/12/12 04:56:55;;;;;;;23.03;11.97;;;;;;;;;;10276482;28;20718;-81
2023/12/12 05:01:56;;;;;;;19.47;11.57;;;;;;;;;;10289351;28;20034;-81
2023/12/12 05:06:57;;;;;;;28.60;13.33;;;;;;;;;;10301812;28;20043;-82
2023/12/12 05:11:58;;;;;;;27.10;13.93;;;;;;;;;;10298300;28;20119;-81
2023/12/12 05:16:59;;;;;;;22.97;13.00;;;;;;;;;;10294262;28;20066;-84
2023/12/12 05:22:00;;;;;;;23.73;12.77;;;;;;;;;;10272117;28;20074;-82
2023/12/12 05:27:01;;;;;;;21.97;11.70;;;;;;;;;;10291116;28;20476;-83
2023/12/12 05:32:03;;;;;;;21.47;9.93;;;;;;;;;;10291303;28;20166;-83
2023/12/12 05:37:04;;;;;;;22.33;11.30;;;;;;;;;;10290654;28;20138;-82
2023/12/12 05:42:07;;;;;;;20.23;9.83;;;;;;;;;;10291155;28;20122;-84
2023/12/12 05:47:09;;;;;;;25.30;11.10;;;;;;;;;;10290468;28;20042;-82
2023/12/12 05:52:10;;;;;;;28.07;13.03;;;;;;;;;;10289659;28;20039;-82
2023/12/12 05:57:12;;;;;;;21.63;12.10;;;;;;;;;;10290366;28;20037;-81
2023/12/12 06:02:13;;;;;;;28.90;15.23;;;;;;;;;;10289369;28;20030;-82
2023/12/12 06:07:14;;;;;;;36.93;16.50;;;;;;;;;;10289606;28;20113;-82
2023/12/12 06:12:17;;;;;;;32.13;14.67;;;;;;;;;;10289472;28;20126;-82
2023/12/12 06:17:18;;;;;;;22.97;11.53;;;;;;;;;;10288914;28;20035;-82
2023/12/12 06:22:26;;;;;;;26.30;11.67;;;;;;;;;;10288366;28;20946;-82
2023/12/12 06:27:27;;;;;;;24.33;10.73;;;;;;;;;;10288799;28;20434;-83
2023/12/12 06:32:28;;;;;;;23.20;11.83;;;;;;;;;;10289376;28;20029;-83
2023/12/12 06:37:29;;;;;;;26.57;12.67;;;;;;;;;;10289679;28;20457;-81
2023/12/12 06:42:30;;;;;;;27.67;13.30;;;;;;;;;;10270631;28;20035;-81
2023/12/12 06:47:31;;;;;;;28.40;14.67;;;;;;;;;;10270706;28;20117;-82
2023/12/12 06:52:33;;;;;;;31.13;15.50;;;;;;;;;;10270522;28;20033;-81
2023/12/12 06:57:42;;;;;;;32.50;17.17;;;;;;;;;;10270366;28;20074;-82
2023/12/12 07:02:43;;;;;;;28.80;15.30;;;;;;;;;;10288330;28;20526;-80
2023/12/12 07:07:44;;;;;;;26.90;13.70;;;;;;;;;;10288331;28;20046;-81
2023/12/12 07:12:45;;;;;;;25.33;13.53;;;;;;;;;;10287144;28;20031;-81
2023/12/12 07:17:46;;;;;;;27.03;13.97;;;;;;;;;;10286664;28;20077;-83
2023/12/12 07:23:00;;;;;;;28.87;14.83;;;;;;;;;;10268619;28;20524;-81
2023/12/12 07:28:01;;;;;;;23.13;12.77;;;;;;;;;;10267939;28;20042;-81
2023/12/12 07:33:02;;;;;;;25.63;12.27;;;;;;;;;;10286995;28;20058;-81
2023/12/12 07:38:03;;;;;;;23.07;12.53;;;;;;;;;;10269879;28;20166;-84
2023/12/12 07:43:04;;;;;;;25.83;13.23;;;;;;;;;;10268530;28;20125;-82
2023/12/12 07:48:05;;;;;;;24.07;11.97;;;;;;;;;;10285968;28;20566;-82
2023/12/12 07:53:06;;;;;;;23.80;12.23;;;;;;;;;;10283193;28;20027;-82
2023/12/12 07:58:07;;;;;;;28.07;14.03;;;;;;;;;;10275927;28;20157;-82
2023/12/12 08:03:09;;;;;;;44.10;21.73;;;;;;;;;;10285741;28;20118;-81
2023/12/12 08:08:10;;;;;;;35.43;18.63;;;;;;;;;;10286481;28;20050;-81
2023/12/12 08:13:11;;;;;;;35.13;18.17;;;;;;;;;;10286003;28;20483;-82
2023/12/12 08:18:12;;;;;;;29.43;15.27;;;;;;;;;;10285887;28;20113;-80
2023/12/12 08:23:13;;;;;;;26.30;15.23;;;;;;;;;;10285349;28;20154;-81
2023/12/12 08:28:14;;;;;;;30.17;16.10;;;;;;;;;;10267528;28;20149;-81
2023/12/12 08:33:15;;;;;;;26.73;15.90;;;;;;;;;;10285176;28;20031;-82
2023/12/12 08:38:16;;;;;;;34.33;17.60;;;;;;;;;;10288251;28;20479;-82
2023/12/12 08:43:17;;;;;;;32.10;17.00;;;;;;;;;;10274781;28;20066;-83
2023/12/12 08:48:18;;;;;;;31.50;16.93;;;;;;;;;;10294232;28;20122;-83
2023/12/12 08:53:26;;;;;;;30.17;16.57;;;;;;;;;;10292916;28;20121;-82
2023/12/12 08:58:28;;;;;;;29.57;14.27;;;;;;;;;;10292755;28;20038;-83
2023/12/12 09:03:29;;;;;;;23.33;12.17;;;;;;;;;;10291710;28;20030;-83
2023/12/12 09:08:30;;;;;;;15.63;8.90;;;;;;;;;;10291877;28;20113;-82
2023/12/12 09:13:31;;;;;;;19.97;10.80;;;;;;;;;;10292851;28;20394;-82
2023/12/12 09:18:32;;;;;;;23.13;12.73;;;;;;;;;;10291771;28;20118;-80
2023/12/12 09:23:34;;;;;;;29.67;15.47;;;;;;;;;;10277927;28;20081;-82
2023/12/12 09:28:35;;;;;;;28.23;15.57;;;;;;;;;;10291096;28;20046;-80
2023/12/12 09:33:37;;;;;;;30.80;15.77;;;;;;;;;;10291168;28;20041;-81
2023/12/12 09:38:38;;;;;;;29.57;15.53;;;;;;;;;;10289977;28;20027;-82
2023/12/12 09:43:40;;;;;;;27.17;14.87;;;;;;;;;;10289833;28;20140;-81
2023/12/12 09:48:41;;;;;;;31.33;16.23;;;;;;;;;;10289186;28;20126;-81
2023/12/12 09:53:46;;;;;;;33.37;16.07;;;;;;;;;;10290823;28;20034;-83
2023/12/12 09:58:50;;;;;;;26.50;15.13;;;;;;;;;;10290271;28;20019;-81
2023/12/12 10:03:53;;;;;;;29.37;15.43;;;;;;;;;;10290031;28;20474;-81
2023/12/12 10:09:00;;;;;;;33.87;17.83;;;;;;;;;;10290225;28;20043;-81
2023/12/12 10:14:01;;;;;;;26.20;13.50;;;;;;;;;;10289452;28;20042;-82
2023/12/12 10:19:03;;;;;;;27.57;13.57;;;;;;;;;;10289054;28;20109;-81
2023/12/12 10:24:05;;;;;;;40.57;18.57;;;;;;;;;;10289601;28;20201;-83
2023/12/12 10:29:06;;;;;;;27.40;13.63;;;;;;;;;;10289070;28;20090;-82
2023/12/12 10:34:07;;;;;;;26.57;12.43;;;;;;;;;;10271129;28;20045;-81
2023/12/12 10:39:15;;;;;;;22.63;12.87;;;;;;;;;;10289555;28;20117;-81
2023/12/12 10:44:16;;;;;;;33.40;17.57;;;;;;;;;;10287991;28;20031;-82
2023/12/12 10:49:18;;;;;;;32.73;16.70;;;;;;;;;;10288781;28;20522;-82
2023/12/12 10:54:22;;;;;;;37.63;19.17;;;;;;;;;;10287841;28;20117;-80
2023/12/12 10:59:24;;;;;;;37.90;18.53;;;;;;;;;;10288014;28;20114;-83
2023/12/12 11:04:25;;;;;;;35.57;18.77;;;;;;;;;;10288159;28;20035;-82
2023/12/12 11:09:26;;;;;;;32.23;17.90;;;;;;;;;;10287948;28;20490;-81
2023/12/12 11:14:27;;;;;;;35.60;17.60;;;;;;;;;;10288712;28;20037;-81
2023/12/12 11:19:28;;;;;;;29.00;16.13;;;;;;;;;;10286866;28;20057;-82
2023/12/12 11:24:55;;;;;;;36.67;18.43;;;;;;;;;;10286842;28;20059;-81
2023/12/12 11:29:56;;;;;;;40.72;19.75;;;;;;;;;;10287150;28;20074;-82
2023/12/12 11:34:57;;;;;;;34.73;17.97;;;;;;;;;;10286573;28;20150;-81
2023/12/12 11:40:00;;;;;;;31.73;17.07;;;;;;;;;;10287153;28;20100;-81
2023/12/12 11:45:02;;;;;;;37.30;19.43;;;;;;;;;;10286514;28;20106;-81
2023/12/12 11:50:13;;;;;;;36.07;18.47;;;;;;;;;;10286021;28;20043;-84
2023/12/12 11:55:19;;;;;;;31.83;19.13;;;;;;;;;;10286181;28;20084;-81
2023/12/12 12:00:20;;;;;;;33.17;18.13;;;;;;;;;;10285937;28;20169;-82
2023/12/12 12:05:21;;;;;;;36.03;18.23;;;;;;;;;;10285856;28;20023;-80
2023/12/12 12:10:24;;;;;;;36.37;18.60;;;;;;;;;;10286138;28;20038;-81
2023/12/12 12:15:26;;;;;;;29.93;17.03;;;;;;;;;;10292103;28;20042;-81
2023/12/12 12:20:27;;;;;;;34.43;17.37;;;;;;;;;;10293373;28;20038;-81
2023/12/12 12:25:28;;;;;;;35.03;17.70;;;;;;;;;;10293121;28;20063;-81
2023/12/12 12:30:29;;;;;;;38.43;17.80;;;;;;;;;;10293137;28;20053;-80
2023/12/12 12:35:31;;;;;;;35.97;18.57;;;;;;;;;;10293415;28;20110;-81
2023/12/12 12:40:36;;;;;;;33.17;17.10;;;;;;;;;;10293643;28;20038;-82
2023/12/12 12:45:37;;;;;;;31.35;17.65;;;;;;;;;;10292837;28;20035;-81
2023/12/12 12:50:42;;;;;;;34.23;18.20;;;;;;;;;;10292664;28;20499;-81
2023/12/12 12:55:43;;;;;;;34.93;17.47;;;;;;;;;;10292562;28;20111;-81
2023/12/12 13:00:44;;;;;;;35.67;18.23;;;;;;;;;;10293189;28;20576;-83
2023/12/12 13:05:46;;;;;;;40.83;20.90;;;;;;;;;;10292139;28;20131;-80
2023/12/12 13:10:47;;;;;;;52.97;28.20;;;;;;;;;;10291822;28;20041;-80
2023/12/12 13:15:48;;;;;;;47.27;24.30;;;;;;;;;;10305042;28;20117;-82
2023/12/12 13:20:49;;;;;;;39.17;21.77;;;;;;;;;;10291949;28;20054;-80
2023/12/12 13:25:50;;;;;;;45.13;21.83;;;;;;;;;;10305893;28;20158;-81
2023/12/12 13:30:51;;;;;;;42.30;21.53;;;;;;;;;;10301826;28;20154;-79
2023/12/12 13:35:53;;;;;;;40.10;21.47;;;;;;;;;;10295550;28;20046;-79
2023/12/12 13:40:54;;;;;;;38.57;20.30;;;;;;;;;;10305814;28;20031;-79
2023/12/12 13:46:01;;;;;;;34.20;17.87;;;;;;;;;;10303231;28;20133;-84
2023/12/12 13:51:03;;;;;;;38.23;19.63;;;;;;;;;;10303174;28;20075;-82
2023/12/12 13:56:04;;;;;;;41.70;21.50;;;;;;;;;;10297757;28;20023;-81
2023/12/12 14:01:05;;;;;;;42.17;21.37;;;;;;;;;;10295059;28;20015;-83
2023/12/12 14:06:06;;;;;;;41.53;22.20;;;;;;;;;;10284170;28;20122;-80
2023/12/12 14:11:07;;;;;;;44.07;23.37;;;;;;;;;;10299485;28;20035;-81
2023/12/12 14:16:09;;;;;;;43.13;23.90;;;;;;;;;;10288664;28;20019;-82
2023/12/12 14:21:10;;;;;;;39.50;20.83;;;;;;;;;;10282293;28;20030;-80
2023/12/12 14:26:16;;;;;;;41.40;21.97;;;;;;;;;;10296292;28;20065;-82
2023/12/12 14:31:25;;;;;;;52.65;27.73;;;;;;;;;;10295647;28;20039;-81
2023/12/12 14:36:26;;;;;;;53.83;30.77;;;;;;;;;;10289252;28;20038;-82
2023/12/12 14:41:28;;;;;;;62.03;29.70;;;;;;;;;;10307216;28;20069;-83
2023/12/12 14:46:29;;;;;;;49.50;23.43;;;;;;;;;;10307723;28;20031;-81
2023/12/12 14:51:37;;;;;;;212.33;88.17;;;;;;;;;;10292670;28;20094;-83
2023/12/12 14:56:42;;;;;;;102.00;44.60;;;;;;;;;;10290241;28;20505;-82
2023/12/12 15:01:43;;;;;;;91.43;42.00;;;;;;;;;;10302568;28;20046;-81
2023/12/12 15:06:44;;;;;;;94.57;45.27;;;;;;;;;;10299618;28;20132;-82
2023/12/12 15:11:45;;;;;;;100.13;48.90;;;;;;;;;;10299455;28;20061;-80
2023/12/12 15:16:46;;;;;;;78.23;37.30;;;;;;;;;;10288391;28;20101;-84
2023/12/12 15:21:50;;;;;;;89.47;45.10;;;;;;;;;;10287349;28;20073;-81
2023/12/12 15:26:54;;;;;;;119.00;52.63;;;;;;;;;;10291937;28;20053;-81
2023/12/12 15:31:55;;;;;;;107.90;54.50;;;;;;;;;;10300369;28;20092;-81
2023/12/12 15:36:56;;;;;;;106.87;54.13;;;;;;;;;;10290055;28;20054;-81
2023/12/12 15:42:02;;;;;;;123.33;62.63;;;;;;;;;;10276181;28;20058;-82
2023/12/12 15:47:04;;;;;;;109.13;55.63;;;;;;;;;;10293335;28;20042;-80
2023/12/12 15:52:05;;;;;;;83.07;40.50;;;;;;;;;;10295371;28;20102;-81
2023/12/12 15:57:06;;;;;;;80.57;40.47;;;;;;;;;;10278161;28;20030;-82
2023/12/12 16:02:07;;;;;;;96.07;54.80;;;;;;;;;;10302079;28;20474;-82
2023/12/12 16:07:08;;;;;;;71.67;38.53;;;;;;;;;;10283904;28;20034;-82
2023/12/12 16:12:09;;;;;;;71.03;35.33;;;;;;;;;;10292924;28;20178;-82
2023/12/12 16:17:11;;;;;;;70.40;36.03;;;;;;;;;;10284683;28;20122;-81
2023/12/12 16:22:14;;;;;;;76.17;37.80;;;;;;;;;;10286039;28;20047;-81
2023/12/12 16:27:15;;;;;;;66.93;34.73;;;;;;;;;;10309252;28;20057;-82
2023/12/12 16:32:17;;;;;;;63.73;33.30;;;;;;;;;;10289061;28;20121;-84
2023/12/12 16:37:19;;;;;;;66.07;32.87;;;;;;;;;;10307374;28;20390;-82
2023/12/12 16:42:20;;;;;;;72.40;38.80;;;;;;;;;;10297911;28;20038;-82
2023/12/12 16:47:21;;;;;;;73.10;35.67;;;;;;;;;;10285481;28;20097;-81
2023/12/12 16:52:22;;;;;;;64.80;32.87;;;;;;;;;;10288189;28;20039;-80
2023/12/12 16:57:23;;;;;;;71.50;36.27;;;;;;;;;;10289538;28;20426;-81
2023/12/12 17:02:24;;;;;;;70.13;35.77;;;;;;;;;;10305917;28;21164;-81
2023/12/12 17:07:25;;;;;;;70.83;36.50;;;;;;;;;;10303047;28;20125;-79
2023/12/12 17:12:26;;;;;;;207.13;85.73;;;;;;;;;;10303145;28;20086;-78
2023/12/12 17:17:29;;;;;;;991.87;482.43;;;;;;;;;;10304168;28;20035;-78
2023/12/12 17:22:38;;;;;;;154.83;72.97;;;;;;;;;;10308123;28;20074;-77
2023/12/12 17:27:39;;;;;;;134.53;64.67;;;;;;;;;;10303655;28;20070;-77
2023/12/12 17:32:41;;;;;;;119.70;57.43;;;;;;;;;;10307065;28;20116;-79
2023/12/12 17:37:42;;;;;;;122.77;60.70;;;;;;;;;;10312917;28;20038;-78
2023/12/12 17:42:44;;;;;;;85.80;42.10;;;;;;;;;;10304365;28;20026;-79
2023/12/12 17:47:45;;;;;;;84.47;42.37;;;;;;;;;;10311314;28;20053;-81
2023/12/12 17:52:46;;;;;;;78.67;40.07;;;;;;;;;;10302069;28;20382;-83
2023/12/12 17:57:47;;;;;;;73.53;37.40;;;;;;;;;;10302357;28;20066;-83
2023/12/12 18:02:48;;;;;;;73.10;36.57;;;;;;;;;;10298592;28;20514;-81
2023/12/12 18:07:49;;;;;;;72.20;34.93;;;;;;;;;;10277268;28;20137;-82
2023/12/12 18:12:50;;;;;;;73.50;38.63;;;;;;;;;;10288392;28;20065;-81
2023/12/12 18:17:51;;;;;;;73.40;38.13;;;;;;;;;;10299153;28;20034;-81
2023/12/12 18:22:57;;;;;;;60.87;32.67;;;;;;;;;;10289184;28;20050;-83
2023/12/12 18:28:00;;;;;;;57.58;30.75;;;;;;;;;;10292801;28;20549;-80
2023/12/12 18:33:01;;;;;;;55.80;28.23;;;;;;;;;;10292233;28;20493;-78
2023/12/12 18:38:02;;;;;;;54.77;25.97;;;;;;;;;;10287261;28;20106;-80
2023/12/12 18:43:07;;;;;;;48.43;23.53;;;;;;;;;;10275352;28;20038;-77
2023/12/12 18:48:08;;;;;;;45.10;21.80;;;;;;;;;;10288267;28;20478;-80
2023/12/12 18:53:09;;;;;;;42.50;20.37;;;;;;;;;;10286074;28;20402;-76
2023/12/12 18:58:10;;;;;;;45.97;21.77;;;;;;;;;;10287390;28;20133;-77
2023/12/12 19:03:11;;;;;;;42.37;21.43;;;;;;;;;;10287071;28;20035;-79
2023/12/12 19:08:12;;;;;;;59.23;28.73;;;;;;;;;;10285828;28;20038;-76
2023/12/12 19:13:14;;;;;;;76.80;32.97;;;;;;;;;;10282267;28;20153;-77
2023/12/12 19:18:15;;;;;;;74.57;31.70;;;;;;;;;;10302223;28;20352;-78
2023/12/12 19:23:17;;;;;;;188.97;87.30;;;;;;;;;;10298626;28;20494;-78
2023/12/12 19:28:18;;;;;;;145.47;67.13;;;;;;;;;;10286676;28;20483;-80
2023/12/12 19:33:19;;;;;;;101.20;44.13;;;;;;;;;;10269752;28;20129;-78
2023/12/12 19:38:21;;;;;;;84.03;38.67;;;;;;;;;;10295255;28;20124;-76
2023/12/12 19:43:28;;;;;;;79.67;37.00;;;;;;;;;;10281524;28;20049;-75
2023/12/12 19:48:29;;;;;;;73.10;34.50;;;;;;;;;;10294876;28;20109;-76
2023/12/12 19:53:30;;;;;;;66.00;32.97;;;;;;;;;;10287248;28;20049;-77
2023/12/12 19:58:31;;;;;;;78.10;41.10;;;;;;;;;;10291495;28;20475;-78
2023/12/12 20:03:33;;;;;;;60.43;31.87;;;;;;;;;;10279524;28;20041;-76
2023/12/12 20:08:34;;;;;;;80.03;35.27;;;;;;;;;;10288314;28;20070;-78
2023/12/12 20:13:35;;;;;;;83.03;37.73;;;;;;;;;;10290758;28;20126;-80
2023/12/12 20:18:36;;;;;;;87.50;41.00;;;;;;;;;;10302845;28;20122;-80
2023/12/12 20:23:37;;;;;;;84.33;38.60;;;;;;;;;;10287078;28;20051;-80
2023/12/12 20:28:38;;;;;;;84.67;39.63;;;;;;;;;;10289670;28;20067;-79
2023/12/12 20:33:46;;;;;;;91.37;44.57;;;;;;;;;;10298669;28;20126;-78
2023/12/12 20:38:47;;;;;;;72.53;36.70;;;;;;;;;;10294113;28;20444;-82
2023/12/12 20:43:50;;;;;;;66.73;33.10;;;;;;;;;;10289938;28;20474;-79
2023/12/12 20:48:52;;;;;;;62.17;32.80;;;;;;;;;;10304887;28;20074;-79
2023/12/12 20:53:53;;;;;;;80.27;48.30;;;;;;;;;;10295311;28;20026;-79
2023/12/12 20:59:01;;;;;;;74.90;41.13;;;;;;;;;;10282770;28;20054;-79
2023/12/12 21:04:03;;;;;;;68.37;36.83;;;;;;;;;;10291641;28;20031;-79
2023/12/12 21:09:04;;;;;;;81.47;41.90;;;;;;;;;;10292101;28;20094;-79
2023/12/12 21:14:07;;;;;;;83.00;40.23;;;;;;;;;;10296759;28;20034;-81
2023/12/12 21:19:09;;;;;;;89.77;41.27;;;;;;;;;;10274129;28;20047;-79
2023/12/12 21:24:11;;;;;;;84.67;36.93;;;;;;;;;;10291109;28;20046;-78
2023/12/12 21:29:13;;;;;;;95.30;46.20;;;;;;;;;;10297409;28;20077;-79
2023/12/12 21:34:14;;;;;;;105.73;50.30;;;;;;;;;;10290242;28;20078;-78
2023/12/12 21:39:15;;;;;;;116.47;54.10;;;;;;;;;;10290891;28;20034;-78
2023/12/12 21:44:16;;;;;;;111.70;56.40;;;;;;;;;;10289861;28;20026;-79
2023/12/12 21:49:18;;;;;;;119.17;55.93;;;;;;;;;;10289932;28;20587;-79
2023/12/12 21:54:19;;;;;;;121.63;57.60;;;;;;;;;;10291351;28;20030;-79
2023/12/12 21:59:20;;;;;;;119.27;56.77;;;;;;;;;;10296921;28;20161;-79
2023/12/12 22:04:21;;;;;;;120.73;56.63;;;;;;;;;;10290315;28;20038;-78
2023/12/12 22:09:22;;;;;;;138.00;64.33;;;;;;;;;;10292052;28;20504;-78
2023/12/12 22:14:23;;;;;;;114.07;53.27;;;;;;;;;;10292363;28;20039;-79
2023/12/12 22:19:24;;;;;;;124.50;57.23;;;;;;;;;;10296899;28;20048;-80
2023/12/12 22:24:25;;;;;;;108.53;55.33;;;;;;;;;;10289376;28;20157;-78
2023/12/12 22:29:28;;;;;;;122.63;57.47;;;;;;;;;;10300374;28;20047;-81
2023/12/12 22:34:29;;;;;;;145.97;67.03;;;;;;;;;;10288454;28;20025;-78
2023/12/12 22:39:30;;;;;;;131.43;62.60;;;;;;;;;;10292538;28;20505;-77
2023/12/12 22:44:31;;;;;;;159.23;80.10;;;;;;;;;;10295355;28;20031;-79
2023/12/12 22:49:32;;;;;;;159.50;77.07;;;;;;;;;;10290133;28;20073;-79
2023/12/12 22:54:33;;;;;;;129.27;66.00;;;;;;;;;;10289777;28;20575;-79
2023/12/12 22:59:34;;;;;;;115.80;60.53;;;;;;;;;;10291116;28;20042;-80
2023/12/12 23:04:36;;;;;;;122.83;57.53;;;;;;;;;;10287926;28;20043;-81
2023/12/12 23:09:44;;;;;;;126.90;65.57;;;;;;;;;;10296943;28;20042;-78
2023/12/12 23:14:45;;;;;;;183.37;89.17;;;;;;;;;;10275156;28;20422;-80
2023/12/12 23:19:46;;;;;;;172.57;82.23;;;;;;;;;;10288113;28;20113;-78
2023/12/12 23:24:54;;;;;;;138.47;72.40;;;;;;;;;;10286908;28;20154;-79
2023/12/12 23:29:55;;;;;;;141.47;70.47;;;;;;;;;;10286715;28;20173;-81
2023/12/12 23:34:56;;;;;;;140.53;70.17;;;;;;;;;;10286573;28;20050;-79
2023/12/12 23:39:57;;;;;;;125.37;64.50;;;;;;;;;;10290117;28;20034;-78
2023/12/12 23:45:03;;;;;;;109.07;55.33;;;;;;;;;;10285296;28;20120;-79
2023/12/12 23:50:06;;;;;;;;;;;;;;;;;;10286637;28;20046;-80
2023/12/12 23:55:08;;;;;;;98.63;47.97;;;;;;;;;;10286876;28;20468;-79
